sensor_id;sensor_type;location;lat;lon;timestamp;temperature;humidity
60868;DHT22;46702;48.370;10.794;2024-03-23T00:55:38;8.10;99.90
60868;DHT22;46702;48.370;10.794;2024-03-23T00:58:03;8.00;99.90
60868;DHT22;46702;48.370;10.794;2024-03-23T01:00:29;8.00;99.90
60868;DHT22;46702;48.370;10.794;2024-03-23T01:02:55;7.80;99.90
60868;DHT22;46702;48.370;10.794;2024-03-23T01:05:20;7.20;99.90
60868;DHT22;46702;48.370;10.794;2024-03-23T01:07:46;7.10;99.90
60868;DHT22;46702;48.370;10.794;2024-03-23T01:10:11;7.20;99.90
60868;DHT22;46702;48.370;10.794;2024-03-23T01:12:37;7.30;99.90
60868;DHT22;46702;48.370;10.794;2024-03-23T01:15:03;7.40;99.90
60868;DHT22;46702;48.370;10.794;2024-03-23T01:17:28;7.40;99.90
60868;DHT22;46702;48.370;10.794;2024-03-23T01:19:54;7.40;99.90
60868;DHT22;46702;48.370;10.794;2024-03-23T01:22:19;7.50;99.90
60868;DHT22;46702;48.370;10.794;2024-03-23T01:24:45;7.40;99.90
60868;DHT22;46702;48.370;10.794;2024-03-23T01:27:11;7.10;99.90
60868;DHT22;46702;48.370;10.794;2024-03-23T01:29:36;6.90;99.90
60868;DHT22;46702;48.370;10.794;2024-03-23T01:32:02;6.90;99.90
60868;DHT22;46702;48.370;10.794;2024-03-23T01:34:28;6.80;99.90
60868;DHT22;46702;48.370;10.794;2024-03-23T01:36:53;6.70;99.90
60868;DHT22;46702;48.370;10.794;2024-03-23T01:39:19;6.50;99.90
60868;DHT22;46702;48.370;10.794;2024-03-23T01:41:44;6.30;99.90
60868;DHT22;46702;48.370;10.794;2024-03-23T01:44:10;6.20;99.90
60868;DHT22;46702;48.370;10.794;2024-03-23T01:46:37;6.10;99.90
60868;DHT22;46702;48.370;10.794;2024-03-23T01:49:03;6.20;99.90
60868;DHT22;46702;48.370;10.794;2024-03-23T01:51:30;6.30;99.90
60868;DHT22;46702;48.370;10.794;2024-03-23T01:53:56;6.40;99.90
60868;DHT22;46702;48.370;10.794;2024-03-23T01:56:22;6.50;99.90
60868;DHT22;46702;48.370;10.794;2024-03-23T01:58:48;6.50;99.90
60868;DHT22;46702;48.370;10.794;2024-03-23T02:01:14;6.60;99.90
60868;DHT22;46702;48.370;10.794;2024-03-23T02:03:39;6.60;99.90
60868;DHT22;46702;48.370;10.794;2024-03-23T02:06:05;6.50;99.90
60868;DHT22;46702;48.370;10.794;2024-03-23T02:08:33;6.50;99.90
60868;DHT22;46702;48.370;10.794;2024-03-23T02:10:58;6.50;99.90
60868;DHT22;46702;48.370;10.794;2024-03-23T02:13:24;6.50;99.90
60868;DHT22;46702;48.370;10.794;2024-03-23T02:15:50;6.60;99.90
60868;DHT22;46702;48.370;10.794;2024-03-23T02:18:15;6.50;99.90
60868;DHT22;46702;48.370;10.794;2024-03-23T02:20:41;6.30;99.90
60868;DHT22;46702;48.370;10.794;2024-03-23T02:23:16;6.10;99.90
60868;DHT22;46702;48.370;10.794;2024-03-23T02:25:43;6.00;99.90
60868;DHT22;46702;48.370;10.794;2024-03-23T02:28:09;5.80;99.90
60868;DHT22;46702;48.370;10.794;2024-03-23T02:30:34;5.80;99.90
60868;DHT22;46702;48.370;10.794;2024-03-23T02:33:00;5.60;99.90
60868;DHT22;46702;48.370;10.794;2024-03-23T02:35:26;5.40;99.90
60868;DHT22;46702;48.370;10.794;2024-03-23T02:37:51;5.30;99.90
60868;DHT22;46702;48.370;10.794;2024-03-23T02:40:19;5.30;99.90
60868;DHT22;46702;48.370;10.794;2024-03-23T02:42:45;5.20;99.90
60868;DHT22;46702;48.370;10.794;2024-03-23T02:45:10;5.10;99.90
60868;DHT22;46702;48.370;10.794;2024-03-23T02:47:36;5.10;99.90
60868;DHT22;46702;48.370;10.794;2024-03-23T02:50:01;5.00;99.90
60868;DHT22;46702;48.370;10.794;2024-03-23T02:52:27;4.90;99.90
60868;DHT22;46702;48.370;10.794;2024-03-23T02:54:53;5.00;99.90
60868;DHT22;46702;48.370;10.794;2024-03-23T02:57:18;5.00;99.90
60868;DHT22;46702;48.370;10.794;2024-03-23T02:59:44;5.00;99.90
60868;DHT22;46702;48.370;10.794;2024-03-23T03:02:10;5.10;99.90
60868;DHT22;46702;48.370;10.794;2024-03-23T03:04:36;5.30;99.90
60868;DHT22;46702;48.370;10.794;2024-03-23T03:07:02;5.60;99.90
60868;DHT22;46702;48.370;10.794;2024-03-23T03:09:27;5.80;99.90
60868;DHT22;46702;48.370;10.794;2024-03-23T03:11:53;5.90;99.90
60868;DHT22;46702;48.370;10.794;2024-03-23T03:14:18;5.80;99.90
60868;DHT22;46702;48.370;10.794;2024-03-23T03:16:45;5.80;99.90
60868;DHT22;46702;48.370;10.794;2024-03-23T03:19:10;5.80;99.90
60868;DHT22;46702;48.370;10.794;2024-03-23T03:21:37;5.80;99.90
60868;DHT22;46702;48.370;10.794;2024-03-23T03:24:03;5.90;99.90
60868;DHT22;46702;48.370;10.794;2024-03-23T03:26:28;5.90;99.90
60868;DHT22;46702;48.370;10.794;2024-03-23T03:28:54;6.00;99.90
60868;DHT22;46702;48.370;10.794;2024-03-23T03:31:20;6.10;99.90
60868;DHT22;46702;48.370;10.794;2024-03-23T03:33:46;6.10;99.90
60868;DHT22;46702;48.370;10.794;2024-03-23T03:36:11;6.30;99.90
60868;DHT22;46702;48.370;10.794;2024-03-23T03:38:37;6.50;99.90
60868;DHT22;46702;48.370;10.794;2024-03-23T03:41:04;6.70;99.90
60868;DHT22;46702;48.370;10.794;2024-03-23T03:43:29;6.80;99.90
60868;DHT22;46702;48.370;10.794;2024-03-23T03:45:56;6.90;99.90
60868;DHT22;46702;48.370;10.794;2024-03-23T03:48:22;7.10;99.90
60868;DHT22;46702;48.370;10.794;2024-03-23T03:50:48;7.20;99.90
60868;DHT22;46702;48.370;10.794;2024-03-23T03:53:14;7.30;99.90
60868;DHT22;46702;48.370;10.794;2024-03-23T03:55:40;7.60;99.90
60868;DHT22;46702;48.370;10.794;2024-03-23T03:58:05;7.70;99.90
60868;DHT22;46702;48.370;10.794;2024-03-23T04:00:31;7.80;99.90
60868;DHT22;46702;48.370;10.794;2024-03-23T04:02:57;8.00;99.90
60868;DHT22;46702;48.370;10.794;2024-03-23T04:05:23;8.10;99.90
60868;DHT22;46702;48.370;10.794;2024-03-23T04:07:49;8.20;99.90
60868;DHT22;46702;48.370;10.794;2024-03-23T04:10:14;8.30;99.90
60868;DHT22;46702;48.370;10.794;2024-03-23T04:12:41;8.30;99.90
60868;DHT22;46702;48.370;10.794;2024-03-23T04:15:07;8.30;99.90
60868;DHT22;46702;48.370;10.794;2024-03-23T04:17:32;8.40;99.90
60868;DHT22;46702;48.370;10.794;2024-03-23T04:20:00;8.50;99.90
60868;DHT22;46702;48.370;10.794;2024-03-23T04:22:26;8.60;99.90
60868;DHT22;46702;48.370;10.794;2024-03-23T04:24:55;8.70;99.90
60868;DHT22;46702;48.370;10.794;2024-03-23T04:27:25;8.80;99.90
60868;DHT22;46702;48.370;10.794;2024-03-23T04:29:51;8.80;99.90
60868;DHT22;46702;48.370;10.794;2024-03-23T04:32:18;8.90;99.90
60868;DHT22;46702;48.370;10.794;2024-03-23T04:34:44;9.00;99.90
60868;DHT22;46702;48.370;10.794;2024-03-23T04:37:11;9.10;99.90
60868;DHT22;46702;48.370;10.794;2024-03-23T04:39:37;9.10;99.90
60868;DHT22;46702;48.370;10.794;2024-03-23T04:42:03;9.00;99.90
60868;DHT22;46702;48.370;10.794;2024-03-23T04:44:29;9.00;99.90
60868;DHT22;46702;48.370;10.794;2024-03-23T04:46:55;9.10;99.90
60868;DHT22;46702;48.370;10.794;2024-03-23T04:49:20;9.00;99.90
60868;DHT22;46702;48.370;10.794;2024-03-23T04:51:46;9.10;99.90
60868;DHT22;46702;48.370;10.794;2024-03-23T04:54:12;9.10;99.90
60868;DHT22;46702;48.370;10.794;2024-03-23T04:56:38;9.10;99.90
60868;DHT22;46702;48.370;10.794;2024-03-23T04:59:04;9.10;99.90
60868;DHT22;46702;48.370;10.794;2024-03-23T05:01:33;9.20;99.90
60868;DHT22;46702;48.370;10.794;2024-03-23T05:03:59;9.20;99.90
60868;DHT22;46702;48.370;10.794;2024-03-23T05:06:25;9.20;99.90
60868;DHT22;46702;48.370;10.794;2024-03-23T05:08:51;9.10;99.90
60868;DHT22;46702;48.370;10.794;2024-03-23T05:11:17;9.10;99.90
60868;DHT22;46702;48.370;10.794;2024-03-23T05:13:43;9.10;99.90
60868;DHT22;46702;48.370;10.794;2024-03-23T05:16:09;9.00;99.90
60868;DHT22;46702;48.370;10.794;2024-03-23T05:18:35;9.00;99.90
60868;DHT22;46702;48.370;10.794;2024-03-23T05:21:01;9.10;99.90
60868;DHT22;46702;48.370;10.794;2024-03-23T05:23:28;9.00;99.90
60868;DHT22;46702;48.370;10.794;2024-03-23T05:25:54;9.00;99.90
60868;DHT22;46702;48.370;10.794;2024-03-23T05:28:20;9.00;99.90
60868;DHT22;46702;48.370;10.794;2024-03-23T05:30:53;9.00;99.90
60868;DHT22;46702;48.370;10.794;2024-03-23T05:33:20;9.00;99.90
60868;DHT22;46702;48.370;10.794;2024-03-23T05:35:46;9.00;99.90
60868;DHT22;46702;48.370;10.794;2024-03-23T05:38:13;9.00;99.90
60868;DHT22;46702;48.370;10.794;2024-03-23T05:40:39;9.00;99.90
60868;DHT22;46702;48.370;10.794;2024-03-23T05:43:06;9.00;99.90
60868;DHT22;46702;48.370;10.794;2024-03-23T05:45:32;9.10;99.90
60868;DHT22;46702;48.370;10.794;2024-03-23T05:47:58;9.10;99.90
60868;DHT22;46702;48.370;10.794;2024-03-23T05:50:24;9.10;99.90
60868;DHT22;46702;48.370;10.794;2024-03-23T05:52:50;9.10;99.90
60868;DHT22;46702;48.370;10.794;2024-03-23T05:55:15;9.10;99.90
60868;DHT22;46702;48.370;10.794;2024-03-23T05:57:41;9.10;99.90
60868;DHT22;46702;48.370;10.794;2024-03-23T06:00:07;9.20;99.90
60868;DHT22;46702;48.370;10.794;2024-03-23T06:02:42;9.30;99.90
60868;DHT22;46702;48.370;10.794;2024-03-23T06:05:11;9.30;99.90
60868;DHT22;46702;48.370;10.794;2024-03-23T06:07:37;9.40;99.90
60868;DHT22;46702;48.370;10.794;2024-03-23T06:10:04;9.50;99.90
60868;DHT22;46702;48.370;10.794;2024-03-23T06:12:30;9.50;99.90
60868;DHT22;46702;48.370;10.794;2024-03-23T06:14:56;9.60;99.90
60868;DHT22;46702;48.370;10.794;2024-03-23T06:17:21;9.80;99.90
60868;DHT22;46702;48.370;10.794;2024-03-23T06:19:47;9.90;99.90
60868;DHT22;46702;48.370;10.794;2024-03-23T06:22:12;10.10;99.90
60868;DHT22;46702;48.370;10.794;2024-03-23T06:24:38;10.20;99.90
60868;DHT22;46702;48.370;10.794;2024-03-23T06:27:04;10.30;99.90
60868;DHT22;46702;48.370;10.794;2024-03-23T06:29:30;10.40;99.90
60868;DHT22;46702;48.370;10.794;2024-03-23T06:31:55;10.40;99.90
60868;DHT22;46702;48.370;10.794;2024-03-23T06:34:21;10.50;99.90
60868;DHT22;46702;48.370;10.794;2024-03-23T06:36:48;10.50;99.90
60868;DHT22;46702;48.370;10.794;2024-03-23T06:39:15;10.50;99.90
60868;DHT22;46702;48.370;10.794;2024-03-23T06:41:52;10.50;99.90
60868;DHT22;46702;48.370;10.794;2024-03-23T06:44:18;10.50;99.90
60868;DHT22;46702;48.370;10.794;2024-03-23T06:46:45;10.60;99.90
60868;DHT22;46702;48.370;10.794;2024-03-23T06:49:11;10.60;99.90
60868;DHT22;46702;48.370;10.794;2024-03-23T06:51:36;10.60;99.90
60868;DHT22;46702;48.370;10.794;2024-03-23T06:54:03;10.70;99.90
60868;DHT22;46702;48.370;10.794;2024-03-23T06:56:29;10.70;99.90
60868;DHT22;46702;48.370;10.794;2024-03-23T06:58:56;10.90;99.90
60868;DHT22;46702;48.370;10.794;2024-03-23T07:01:21;10.90;99.90
60868;DHT22;46702;48.370;10.794;2024-03-23T07:03:47;10.90;99.90
60868;DHT22;46702;48.370;10.794;2024-03-23T07:06:12;11.00;99.90
60868;DHT22;46702;48.370;10.794;2024-03-23T07:08:38;11.10;99.90
60868;DHT22;46702;48.370;10.794;2024-03-23T07:11:03;11.20;99.90
60868;DHT22;46702;48.370;10.794;2024-03-23T07:13:30;11.20;99.90
60868;DHT22;46702;48.370;10.794;2024-03-23T07:15:56;11.30;99.90
60868;DHT22;46702;48.370;10.794;2024-03-23T07:18:22;11.20;99.90
60868;DHT22;46702;48.370;10.794;2024-03-23T07:20:57;11.20;99.90
60868;DHT22;46702;48.370;10.794;2024-03-23T07:23:24;10.90;99.90
60868;DHT22;46702;48.370;10.794;2024-03-23T07:26:03;10.50;99.90
60868;DHT22;46702;48.370;10.794;2024-03-23T07:28:33;10.10;99.90
60868;DHT22;46702;48.370;10.794;2024-03-23T07:31:09;9.80;99.90
60868;DHT22;46702;48.370;10.794;2024-03-23T07:33:37;9.60;99.90
60868;DHT22;46702;48.370;10.794;2024-03-23T07:36:04;9.50;99.90
60868;DHT22;46702;48.370;10.794;2024-03-23T07:38:29;9.50;99.90
60868;DHT22;46702;48.370;10.794;2024-03-23T07:41:09;9.40;99.90
60868;DHT22;46702;48.370;10.794;2024-03-23T07:43:37;9.30;99.90
60868;DHT22;46702;48.370;10.794;2024-03-23T07:46:04;9.20;99.90
60868;DHT22;46702;48.370;10.794;2024-03-23T07:48:30;9.20;99.90
60868;DHT22;46702;48.370;10.794;2024-03-23T07:51:09;9.20;99.90
60868;DHT22;46702;48.370;10.794;2024-03-23T07:53:36;9.20;99.90
60868;DHT22;46702;48.370;10.794;2024-03-23T07:56:12;9.20;99.90
60868;DHT22;46702;48.370;10.794;2024-03-23T07:58:38;9.10;99.90
60868;DHT22;46702;48.370;10.794;2024-03-23T08:01:09;9.10;99.90
60868;DHT22;46702;48.370;10.794;2024-03-23T08:03:35;9.00;99.90
60868;DHT22;46702;48.370;10.794;2024-03-23T08:06:14;8.90;99.90
60868;DHT22;46702;48.370;10.794;2024-03-23T08:08:42;8.90;99.90
60868;DHT22;46702;48.370;10.794;2024-03-23T08:11:08;8.90;99.90
60868;DHT22;46702;48.370;10.794;2024-03-23T08:13:34;9.00;99.90
60868;DHT22;46702;48.370;10.794;2024-03-23T08:16:02;9.00;99.90
60868;DHT22;46702;48.370;10.794;2024-03-23T08:18:28;9.00;99.90
60868;DHT22;46702;48.370;10.794;2024-03-23T08:20:59;9.00;99.90
60868;DHT22;46702;48.370;10.794;2024-03-23T08:23:26;9.00;99.90
60868;DHT22;46702;48.370;10.794;2024-03-23T08:25:52;9.00;99.90
60868;DHT22;46702;48.370;10.794;2024-03-23T08:28:22;9.10;99.90
60868;DHT22;46702;48.370;10.794;2024-03-23T08:30:48;9.10;99.90
60868;DHT22;46702;48.370;10.794;2024-03-23T08:33:15;9.10;99.90
60868;DHT22;46702;48.370;10.794;2024-03-23T08:35:41;9.10;99.90
60868;DHT22;46702;48.370;10.794;2024-03-23T08:38:06;9.00;99.90
60868;DHT22;46702;48.370;10.794;2024-03-23T08:40:32;9.00;99.90
60868;DHT22;46702;48.370;10.794;2024-03-23T08:42:58;9.00;99.90
60868;DHT22;46702;48.370;10.794;2024-03-23T08:45:24;9.00;99.90
60868;DHT22;46702;48.370;10.794;2024-03-23T08:47:51;9.10;99.90
60868;DHT22;46702;48.370;10.794;2024-03-23T08:50:16;9.00;99.90
60868;DHT22;46702;48.370;10.794;2024-03-23T08:52:42;9.00;99.90
60868;DHT22;46702;48.370;10.794;2024-03-23T08:55:08;9.00;99.90
60868;DHT22;46702;48.370;10.794;2024-03-23T08:57:35;9.00;99.90
60868;DHT22;46702;48.370;10.794;2024-03-23T09:00:00;9.00;99.90
60868;DHT22;46702;48.370;10.794;2024-03-23T09:02:26;9.00;99.90
60868;DHT22;46702;48.370;10.794;2024-03-23T09:04:52;9.10;99.90
60868;DHT22;46702;48.370;10.794;2024-03-23T09:07:17;9.10;99.90
60868;DHT22;46702;48.370;10.794;2024-03-23T09:09:43;9.10;99.90
60868;DHT22;46702;48.370;10.794;2024-03-23T09:12:09;9.10;99.90
60868;DHT22;46702;48.370;10.794;2024-03-23T09:14:34;9.10;99.90
60868;DHT22;46702;48.370;10.794;2024-03-23T09:17:00;9.20;99.90
60868;DHT22;46702;48.370;10.794;2024-03-23T09:19:29;9.20;99.90
60868;DHT22;46702;48.370;10.794;2024-03-23T09:21:55;9.10;99.90
60868;DHT22;46702;48.370;10.794;2024-03-23T09:24:20;9.10;99.90
60868;DHT22;46702;48.370;10.794;2024-03-23T09:26:46;9.20;99.90
60868;DHT22;46702;48.370;10.794;2024-03-23T09:29:12;9.10;99.90
60868;DHT22;46702;48.370;10.794;2024-03-23T09:31:37;9.10;99.90
60868;DHT22;46702;48.370;10.794;2024-03-23T09:34:04;9.10;99.90
60868;DHT22;46702;48.370;10.794;2024-03-23T09:36:29;9.10;99.90
60868;DHT22;46702;48.370;10.794;2024-03-23T09:38:55;9.10;99.90
60868;DHT22;46702;48.370;10.794;2024-03-23T09:41:20;9.10;99.90
60868;DHT22;46702;48.370;10.794;2024-03-23T09:43:46;9.10;99.90
60868;DHT22;46702;48.370;10.794;2024-03-23T09:46:14;9.10;99.90
60868;DHT22;46702;48.370;10.794;2024-03-23T09:48:39;9.10;99.90
60868;DHT22;46702;48.370;10.794;2024-03-23T09:51:05;9.10;99.90
60868;DHT22;46702;48.370;10.794;2024-03-23T09:53:34;9.10;99.90
60868;DHT22;46702;48.370;10.794;2024-03-23T09:56:00;9.20;99.90
60868;DHT22;46702;48.370;10.794;2024-03-23T09:58:26;9.20;99.90
60868;DHT22;46702;48.370;10.794;2024-03-23T10:00:51;9.20;99.90
60868;DHT22;46702;48.370;10.794;2024-03-23T10:03:17;9.10;99.90
60868;DHT22;46702;48.370;10.794;2024-03-23T10:05:42;9.00;99.90
60868;DHT22;46702;48.370;10.794;2024-03-23T10:10:41;8.70;99.90
60868;DHT22;46702;48.370;10.794;2024-03-23T10:13:07;8.80;99.90
60868;DHT22;46702;48.370;10.794;2024-03-23T10:15:36;8.70;99.90
60868;DHT22;46702;48.370;10.794;2024-03-23T10:18:18;8.70;99.90
60868;DHT22;46702;48.370;10.794;2024-03-23T10:20:47;8.70;99.90
60868;DHT22;46702;48.370;10.794;2024-03-23T10:23:16;8.60;99.90
60868;DHT22;46702;48.370;10.794;2024-03-23T10:25:42;8.60;99.90
60868;DHT22;46702;48.370;10.794;2024-03-23T10:28:08;8.60;99.90
60868;DHT22;46702;48.370;10.794;2024-03-23T10:30:35;8.60;99.90
60868;DHT22;46702;48.370;10.794;2024-03-23T10:33:27;8.50;99.90
60868;DHT22;46702;48.370;10.794;2024-03-23T10:35:53;8.70;99.90
60868;DHT22;46702;48.370;10.794;2024-03-23T10:38:19;8.90;99.90
60868;DHT22;46702;48.370;10.794;2024-03-23T10:40:45;9.00;99.90
60868;DHT22;46702;48.370;10.794;2024-03-23T10:43:11;8.90;99.90
60868;DHT22;46702;48.370;10.794;2024-03-23T10:45:37;9.10;99.90
60868;DHT22;46702;48.370;10.794;2024-03-23T10:48:03;9.00;99.90
60868;DHT22;46702;48.370;10.794;2024-03-23T10:50:29;9.00;99.90
60868;DHT22;46702;48.370;10.794;2024-03-23T10:52:56;9.10;99.90
60868;DHT22;46702;48.370;10.794;2024-03-23T10:55:25;9.20;99.90
60868;DHT22;46702;48.370;10.794;2024-03-23T10:57:54;9.10;99.90
60868;DHT22;46702;48.370;10.794;2024-03-23T11:00:21;9.00;99.90
60868;DHT22;46702;48.370;10.794;2024-03-23T11:02:48;9.10;99.90
60868;DHT22;46702;48.370;10.794;2024-03-23T11:05:28;9.10;99.90
60868;DHT22;46702;48.370;10.794;2024-03-23T11:07:55;9.10;99.90
60868;DHT22;46702;48.370;10.794;2024-03-23T11:10:28;9.20;99.90
60868;DHT22;46702;48.370;10.794;2024-03-23T11:13:38;9.10;99.90
60868;DHT22;46702;48.370;10.794;2024-03-23T11:15:44;9.10;99.90
60868;DHT22;46702;48.370;10.794;2024-03-23T11:18:10;9.10;99.90
60868;DHT22;46702;48.370;10.794;2024-03-23T11:20:37;9.00;98.80
60868;DHT22;46702;48.370;10.794;2024-03-23T11:23:05;8.80;92.70
60868;DHT22;46702;48.370;10.794;2024-03-23T11:25:30;8.60;91.70
60868;DHT22;46702;48.370;10.794;2024-03-23T11:27:58;8.60;97.80
60868;DHT22;46702;48.370;10.794;2024-03-23T11:30:34;8.60;95.90
60868;DHT22;46702;48.370;10.794;2024-03-23T11:33:02;8.40;93.00
60868;DHT22;46702;48.370;10.794;2024-03-23T11:35:38;8.50;97.00
60868;DHT22;46702;48.370;10.794;2024-03-23T11:38:15;8.50;94.10
60868;DHT22;46702;48.370;10.794;2024-03-23T11:40:45;8.60;96.90
60868;DHT22;46702;48.370;10.794;2024-03-23T11:43:13;8.60;96.80
60868;DHT22;46702;48.370;10.794;2024-03-23T11:48:13;9.00;97.50
60868;DHT22;46702;48.370;10.794;2024-03-23T11:50:41;9.00;97.60
60868;DHT22;46702;48.370;10.794;2024-03-23T11:53:17;8.90;95.00
60868;DHT22;46702;48.370;10.794;2024-03-23T11:58:11;9.30;99.90
60868;DHT22;46702;48.370;10.794;2024-03-23T12:00:38;9.40;98.20
60868;DHT22;46702;48.370;10.794;2024-03-23T12:03:04;9.30;96.90
60868;DHT22;46702;48.370;10.794;2024-03-23T12:05:31;9.20;96.70
60868;DHT22;46702;48.370;10.794;2024-03-23T12:11:14;8.70;95.80
60868;DHT22;46702;48.370;10.794;2024-03-23T12:13:42;9.00;98.50
60868;DHT22;46702;48.370;10.794;2024-03-23T12:18:35;9.30;96.60
60868;DHT22;46702;48.370;10.794;2024-03-23T12:21:01;9.10;93.20
60868;DHT22;46702;48.370;10.794;2024-03-23T12:23:27;9.00;92.60
60868;DHT22;46702;48.370;10.794;2024-03-23T12:25:52;9.10;96.40
60868;DHT22;46702;48.370;10.794;2024-03-23T12:28:18;9.20;92.00
60868;DHT22;46702;48.370;10.794;2024-03-23T12:30:43;9.20;90.50
60868;DHT22;46702;48.370;10.794;2024-03-23T12:33:09;9.30;91.00
60868;DHT22;46702;48.370;10.794;2024-03-23T12:35:34;9.50;90.50
60868;DHT22;46702;48.370;10.794;2024-03-23T12:38:00;9.30;83.10
60868;DHT22;46702;48.370;10.794;2024-03-23T12:40:26;9.10;81.20
60868;DHT22;46702;48.370;10.794;2024-03-23T12:42:53;9.10;76.80
60868;DHT22;46702;48.370;10.794;2024-03-23T12:45:19;9.10;77.80
60868;DHT22;46702;48.370;10.794;2024-03-23T12:47:44;9.00;82.20
60868;DHT22;46702;48.370;10.794;2024-03-23T12:50:10;9.00;83.70
60868;DHT22;46702;48.370;10.794;2024-03-23T12:52:37;8.80;90.50
60868;DHT22;46702;48.370;10.794;2024-03-23T12:55:03;8.60;86.40
60868;DHT22;46702;48.370;10.794;2024-03-23T12:57:31;8.50;89.30
60868;DHT22;46702;48.370;10.794;2024-03-23T12:59:57;8.20;94.20
60868;DHT22;46702;48.370;10.794;2024-03-23T13:02:23;8.10;94.00
60868;DHT22;46702;48.370;10.794;2024-03-23T13:04:55;7.90;95.90
60868;DHT22;46702;48.370;10.794;2024-03-23T13:07:22;7.80;99.90
60868;DHT22;46702;48.370;10.794;2024-03-23T13:09:51;7.70;99.90
60868;DHT22;46702;48.370;10.794;2024-03-23T13:12:18;7.80;99.90
60868;DHT22;46702;48.370;10.794;2024-03-23T13:14:45;7.80;99.90
60868;DHT22;46702;48.370;10.794;2024-03-23T13:17:11;7.60;97.20
60868;DHT22;46702;48.370;10.794;2024-03-23T13:19:37;7.50;93.50
60868;DHT22;46702;48.370;10.794;2024-03-23T13:22:03;7.50;94.00
60868;DHT22;46702;48.370;10.794;2024-03-23T13:24:29;7.50;94.20
60868;DHT22;46702;48.370;10.794;2024-03-23T13:26:56;7.40;86.80
60868;DHT22;46702;48.370;10.794;2024-03-23T13:29:22;7.40;90.10
60868;DHT22;46702;48.370;10.794;2024-03-23T13:31:49;7.40;90.00
60868;DHT22;46702;48.370;10.794;2024-03-23T13:34:16;7.30;88.00
60868;DHT22;46702;48.370;10.794;2024-03-23T13:36:45;7.20;86.20
60868;DHT22;46702;48.370;10.794;2024-03-23T13:39:12;7.30;90.20
60868;DHT22;46702;48.370;10.794;2024-03-23T13:41:45;7.40;91.10
60868;DHT22;46702;48.370;10.794;2024-03-23T13:44:11;7.40;92.90
60868;DHT22;46702;48.370;10.794;2024-03-23T13:46:38;7.50;92.00
60868;DHT22;46702;48.370;10.794;2024-03-23T13:49:05;7.50;91.10
60868;DHT22;46702;48.370;10.794;2024-03-23T13:51:30;7.40;91.80
60868;DHT22;46702;48.370;10.794;2024-03-23T13:53:57;7.40;92.30
60868;DHT22;46702;48.370;10.794;2024-03-23T13:56:25;7.40;92.80
60868;DHT22;46702;48.370;10.794;2024-03-23T13:58:51;7.40;94.00
60868;DHT22;46702;48.370;10.794;2024-03-23T14:01:17;7.50;94.20
60868;DHT22;46702;48.370;10.794;2024-03-23T14:03:43;7.50;94.70
60868;DHT22;46702;48.370;10.794;2024-03-23T14:06:10;7.60;95.90
60868;DHT22;46702;48.370;10.794;2024-03-23T14:08:36;7.50;94.20
60868;DHT22;46702;48.370;10.794;2024-03-23T14:11:05;7.60;93.10
60868;DHT22;46702;48.370;10.794;2024-03-23T14:13:31;7.60;94.70
60868;DHT22;46702;48.370;10.794;2024-03-23T14:15:57;7.60;92.10
60868;DHT22;46702;48.370;10.794;2024-03-23T14:18:22;7.60;91.40
60868;DHT22;46702;48.370;10.794;2024-03-23T14:20:49;7.80;95.40
60868;DHT22;46702;48.370;10.794;2024-03-23T14:23:15;8.00;96.20
60868;DHT22;46702;48.370;10.794;2024-03-23T14:25:41;7.90;90.50
60868;DHT22;46702;48.370;10.794;2024-03-23T14:28:07;8.00;94.30
60868;DHT22;46702;48.370;10.794;2024-03-23T14:30:39;8.10;92.80
60868;DHT22;46702;48.370;10.794;2024-03-23T14:33:05;8.20;90.20
60868;DHT22;46702;48.370;10.794;2024-03-23T14:35:30;8.50;83.90
60868;DHT22;46702;48.370;10.794;2024-03-23T14:37:58;8.50;82.20
60868;DHT22;46702;48.370;10.794;2024-03-23T14:40:24;8.70;90.50
60868;DHT22;46702;48.370;10.794;2024-03-23T14:42:53;8.70;87.60
60868;DHT22;46702;48.370;10.794;2024-03-23T14:45:19;8.50;92.00
60868;DHT22;46702;48.370;10.794;2024-03-23T14:47:44;8.10;84.30
60868;DHT22;46702;48.370;10.794;2024-03-23T14:50:10;8.00;84.30
60868;DHT22;46702;48.370;10.794;2024-03-23T14:52:49;7.90;83.70
60868;DHT22;46702;48.370;10.794;2024-03-23T14:55:16;7.90;90.30
60868;DHT22;46702;48.370;10.794;2024-03-23T14:57:42;7.70;87.00
60868;DHT22;46702;48.370;10.794;2024-03-23T15:00:08;7.80;92.10
60868;DHT22;46702;48.370;10.794;2024-03-23T15:02:39;7.80;90.20
60868;DHT22;46702;48.370;10.794;2024-03-23T15:05:05;7.80;86.10
60868;DHT22;46702;48.370;10.794;2024-03-23T15:07:38;7.80;87.30
60868;DHT22;46702;48.370;10.794;2024-03-23T15:10:06;8.10;92.20
60868;DHT22;46702;48.370;10.794;2024-03-23T15:12:32;8.50;86.90
60868;DHT22;46702;48.370;10.794;2024-03-23T15:14:59;8.40;87.60
60868;DHT22;46702;48.370;10.794;2024-03-23T15:17:25;8.60;91.30
60868;DHT22;46702;48.370;10.794;2024-03-23T15:19:51;8.50;85.00
60868;DHT22;46702;48.370;10.794;2024-03-23T15:22:18;8.50;92.30
60868;DHT22;46702;48.370;10.794;2024-03-23T15:24:43;8.50;91.70
60868;DHT22;46702;48.370;10.794;2024-03-23T15:27:09;8.50;88.00
60868;DHT22;46702;48.370;10.794;2024-03-23T15:29:35;8.70;84.80
60868;DHT22;46702;48.370;10.794;2024-03-23T15:32:02;8.80;91.40
60868;DHT22;46702;48.370;10.794;2024-03-23T15:34:29;8.40;87.30
60868;DHT22;46702;48.370;10.794;2024-03-23T15:36:54;8.10;91.10
60868;DHT22;46702;48.370;10.794;2024-03-23T15:39:20;8.20;93.50
60868;DHT22;46702;48.370;10.794;2024-03-23T15:41:47;7.90;86.60
60868;DHT22;46702;48.370;10.794;2024-03-23T15:44:13;7.80;91.00
60868;DHT22;46702;48.370;10.794;2024-03-23T15:46:39;7.80;86.00
60868;DHT22;46702;48.370;10.794;2024-03-23T15:49:04;7.80;90.50
60868;DHT22;46702;48.370;10.794;2024-03-23T15:51:31;7.90;89.10
60868;DHT22;46702;48.370;10.794;2024-03-23T15:53:59;7.80;85.30
60868;DHT22;46702;48.370;10.794;2024-03-23T15:56:25;8.00;91.20
60868;DHT22;46702;48.370;10.794;2024-03-23T15:58:50;8.30;87.10
60868;DHT22;46702;48.370;10.794;2024-03-23T16:01:16;8.50;90.10
60868;DHT22;46702;48.370;10.794;2024-03-23T16:03:41;8.30;86.60
60868;DHT22;46702;48.370;10.794;2024-03-23T16:06:07;8.20;91.00
60868;DHT22;46702;48.370;10.794;2024-03-23T16:08:33;8.00;90.60
60868;DHT22;46702;48.370;10.794;2024-03-23T16:11:06;7.90;87.40
60868;DHT22;46702;48.370;10.794;2024-03-23T16:13:33;7.90;89.80
60868;DHT22;46702;48.370;10.794;2024-03-23T16:16:00;7.80;91.50
60868;DHT22;46702;48.370;10.794;2024-03-23T16:18:29;7.70;87.20
60868;DHT22;46702;48.370;10.794;2024-03-23T16:21:02;7.60;91.20
60868;DHT22;46702;48.370;10.794;2024-03-23T16:23:28;7.60;89.40
60868;DHT22;46702;48.370;10.794;2024-03-23T16:25:55;7.50;89.40
60868;DHT22;46702;48.370;10.794;2024-03-23T16:31:07;7.50;91.70
60868;DHT22;46702;48.370;10.794;2024-03-23T16:33:34;7.40;95.80
60868;DHT22;46702;48.370;10.794;2024-03-23T16:36:07;7.30;93.10
60868;DHT22;46702;48.370;10.794;2024-03-23T16:38:43;7.20;96.80